sensor_id;sensor_type;location;lat;lon;timestamp;pressure;altitude;pressure_sealevel;temperature;humidity
62980;BME280;49075;53.988;27.678;2023-12-20T00:01:44;974.2;;;3.3;82.6
62980;BME280;49075;53.988;27.678;2023-12-20T00:06:46;974.2;;;3.1;83
62980;BME280;49075;53.988;27.678;2023-12-20T00:12:07;974.3;;;3.2;83
62980;BME280;49075;53.988;27.678;2023-12-20T00:16:46;974.3;;;3.2;82.7
62980;BME280;49075;53.988;27.678;2023-12-20T00:22:16;974.3;;;3.3;82.6
62980;BME280;49075;53.988;27.678;2023-12-20T00:27:03;974.2;;;3.3;82.4
62980;BME280;49075;53.988;27.678;2023-12-20T00:31:27;974.2;;;3.2;82.7
62980;BME280;49075;53.988;27.678;2023-12-20T00:36:46;974.1;;;3.1;82.7
62980;BME280;49075;53.988;27.678;2023-12-20T00:41:34;974.1;;;3.3;82.6
62980;BME280;49075;53.988;27.678;2023-12-20T00:47:02;974;;;3.2;82.2
62980;BME280;49075;53.988;27.678;2023-12-20T00:51:26;973.9;;;3.2;82.5
62980;BME280;49075;53.988;27.678;2023-12-20T00:56:32;973.7;;;3.1;82.4
62980;BME280;49075;53.988;27.678;2023-12-20T01:01:36;973.7;;;3.1;82.6
62980;BME280;49075;53.988;27.678;2023-12-20T01:06:56;973.7;;;3;82.5
62980;BME280;49075;53.988;27.678;2023-12-20T01:12:16;973.7;;;3.2;82.3
62980;BME280;49075;53.988;27.678;2023-12-20T01:17:02;973.6;;;3;82.4
62980;BME280;49075;53.988;27.678;2023-12-20T01:21:34;973.7;;;3.1;82.3
62980;BME280;49075;53.988;27.678;2023-12-20T01:26:54;973.6;;;3.1;82.3
62980;BME280;49075;53.988;27.678;2023-12-20T01:32:12;973.5;;;3.2;82.3
62980;BME280;49075;53.988;27.678;2023-12-20T01:37:16;973.4;;;3.1;82.4
62980;BME280;49075;53.988;27.678;2023-12-20T01:41:26;973.5;;;3.2;82.2
62980;BME280;49075;53.988;27.678;2023-12-20T01:46:46;973.4;;;3.2;82.1
62980;BME280;49075;53.988;27.678;2023-12-20T01:51:54;973.3;;;3.1;82.4
62980;BME280;49075;53.988;27.678;2023-12-20T01:56:26;973.2;;;3.1;82.4
62980;BME280;49075;53.988;27.678;2023-12-20T02:02:16;973.2;;;3;82.3
62980;BME280;49075;53.988;27.678;2023-12-20T02:07:03;973.2;;;3.2;82.1
62980;BME280;49075;53.988;27.678;2023-12-20T02:11:56;973.1;;;3.1;82
62980;BME280;49075;53.988;27.678;2023-12-20T02:16:26;973;;;3.1;82.4
62980;BME280;49075;53.988;27.678;2023-12-20T02:21:34;973;;;3;82.6
62980;BME280;49075;53.988;27.678;2023-12-20T02:27:17;973;;;3.1;82.6
62980;BME280;49075;53.988;27.678;2023-12-20T02:32:03;973;;;3.2;82.2
62980;BME280;49075;53.988;27.678;2023-12-20T02:36:46;972.9;;;3.2;82.2
62980;BME280;49075;53.988;27.678;2023-12-20T02:41:44;972.8;;;3.1;82.2
62980;BME280;49075;53.988;27.678;2023-12-20T02:47:16;972.8;;;3.2;82.2
62980;BME280;49075;53.988;27.678;2023-12-20T02:51:46;972.7;;;3.2;82.2
62980;BME280;49075;53.988;27.678;2023-12-20T02:57:16;972.6;;;3.1;82.3
62980;BME280;49075;53.988;27.678;2023-12-20T03:01:34;972.6;;;3.2;82.2
62980;BME280;49075;53.988;27.678;2023-12-20T03:06:56;972.5;;;3.1;82.1
62980;BME280;49075;53.988;27.678;2023-12-20T03:12:16;972.5;;;3.2;82.1
62980;BME280;49075;53.988;27.678;2023-12-20T03:17:03;972.5;;;3.2;82
62980;BME280;49075;53.988;27.678;2023-12-20T03:22:06;972.5;;;3.2;82
62980;BME280;49075;53.988;27.678;2023-12-20T03:26:46;972.5;;;3.2;82
62980;BME280;49075;53.988;27.678;2023-12-20T03:31:56;972.6;;;3.2;82.1
62980;BME280;49075;53.988;27.678;2023-12-20T03:37:16;972.5;;;3.2;82
62980;BME280;49075;53.988;27.678;2023-12-20T03:41:43;972.5;;;3.2;82.1
62980;BME280;49075;53.988;27.678;2023-12-20T03:47:16;972.5;;;3.1;82.2
62980;BME280;49075;53.988;27.678;2023-12-20T03:51:37;972.4;;;3.1;82.7
62980;BME280;49075;53.988;27.678;2023-12-20T03:56:46;972.4;;;3.1;82.3
62980;BME280;49075;53.988;27.678;2023-12-20T04:02:09;972.5;;;3.2;82.3
62980;BME280;49075;53.988;27.678;2023-12-20T04:07:03;972.5;;;3.1;82.1
62980;BME280;49075;53.988;27.678;2023-12-20T04:12:15;972.4;;;3.1;82.4
62980;BME280;49075;53.988;27.678;2023-12-20T04:16:47;972.3;;;3.1;82.5
62980;BME280;49075;53.988;27.678;2023-12-20T04:21:57;972.3;;;3.1;82.5
62980;BME280;49075;53.988;27.678;2023-12-20T04:27:17;972.4;;;3;82.6
62980;BME280;49075;53.988;27.678;2023-12-20T04:31:34;972.4;;;3;82.9
62980;BME280;49075;53.988;27.678;2023-12-20T04:37:17;972.4;;;3.1;82.8
62980;BME280;49075;53.988;27.678;2023-12-20T04:41:34;972.4;;;3;82.8
62980;BME280;49075;53.988;27.678;2023-12-20T04:46:27;972.5;;;2.9;83.2
62980;BME280;49075;53.988;27.678;2023-12-20T04:51:55;972.5;;;3;83.2
62980;BME280;49075;53.988;27.678;2023-12-20T04:57:03;972.5;;;2.9;83.3
62980;BME280;49075;53.988;27.678;2023-12-20T05:02:17;972.5;;;2.9;83.4
62980;BME280;49075;53.988;27.678;2023-12-20T05:06:45;972.5;;;2.9;83.3
62980;BME280;49075;53.988;27.678;2023-12-20T05:11:57;972.4;;;2.9;83.5
62980;BME280;49075;53.988;27.678;2023-12-20T05:17:17;972.3;;;2.9;83.4
62980;BME280;49075;53.988;27.678;2023-12-20T05:21:27;972.3;;;2.8;83.5
62980;BME280;49075;53.988;27.678;2023-12-20T05:27:17;972.3;;;2.8;83.4
62980;BME280;49075;53.988;27.678;2023-12-20T05:31:27;972.2;;;2.8;83.4
62980;BME280;49075;53.988;27.678;2023-12-20T05:36:57;972.2;;;2.8;83.5
62980;BME280;49075;53.988;27.678;2023-12-20T05:42:17;972.3;;;2.8;83.4
62980;BME280;49075;53.988;27.678;2023-12-20T05:46:59;972.3;;;2.9;83.1
62980;BME280;49075;53.988;27.678;2023-12-20T05:52:15;972.3;;;2.9;83
62980;BME280;49075;53.988;27.678;2023-12-20T05:56:39;972.3;;;2.9;83.1
62980;BME280;49075;53.988;27.678;2023-12-20T06:02:17;972.3;;;2.8;83.1
62980;BME280;49075;53.988;27.678;2023-12-20T06:07:17;972.3;;;2.9;83
62980;BME280;49075;53.988;27.678;2023-12-20T06:11:57;972.4;;;2.9;82.7
62980;BME280;49075;53.988;27.678;2023-12-20T06:17:17;972.4;;;3;82.5
62980;BME280;49075;53.988;27.678;2023-12-20T06:22:17;972.4;;;3;82.3
62980;BME280;49075;53.988;27.678;2023-12-20T06:26:47;972.5;;;3;82.3
62980;BME280;49075;53.988;27.678;2023-12-20T06:32:17;972.5;;;3;82.1
62980;BME280;49075;53.988;27.678;2023-12-20T06:37:03;972.5;;;3;82.4
62980;BME280;49075;53.988;27.678;2023-12-20T06:42:07;972.6;;;3;82.1
62980;BME280;49075;53.988;27.678;2023-12-20T06:46:47;972.6;;;3.1;82.3
62980;BME280;49075;53.988;27.678;2023-12-20T06:51:49;972.7;;;3.1;82.1
62980;BME280;49075;53.988;27.678;2023-12-20T06:57:17;972.6;;;3.2;82.1
62980;BME280;49075;53.988;27.678;2023-12-20T07:01:33;972.7;;;3.1;82
62980;BME280;49075;53.988;27.678;2023-12-20T07:07:09;972.7;;;3.4;81.7
62980;BME280;49075;53.988;27.678;2023-12-20T07:11:27;972.7;;;3.3;81.4
62980;BME280;49075;53.988;27.678;2023-12-20T07:16:41;972.7;;;3.3;81.8
62980;BME280;49075;53.988;27.678;2023-12-20T07:22:19;972.7;;;3.3;81.8
62980;BME280;49075;53.988;27.678;2023-12-20T07:27:03;972.8;;;3.3;81.7
62980;BME280;49075;53.988;27.678;2023-12-20T07:31:49;972.8;;;3.3;81.6
62980;BME280;49075;53.988;27.678;2023-12-20T07:36:39;972.7;;;3.4;81.6
62980;BME280;49075;53.988;27.678;2023-12-20T07:41:57;972.7;;;3.3;81.7
62980;BME280;49075;53.988;27.678;2023-12-20T07:47:15;972.7;;;3.6;81.3
62980;BME280;49075;53.988;27.678;2023-12-20T07:51:41;972.7;;;3.6;81.1
62980;BME280;49075;53.988;27.678;2023-12-20T07:56:35;972.7;;;3.7;81.1
62980;BME280;49075;53.988;27.678;2023-12-20T08:02:05;972.7;;;3.7;81
62980;BME280;49075;53.988;27.678;2023-12-20T08:06:35;972.7;;;3.7;81
62980;BME280;49075;53.988;27.678;2023-12-20T08:12:19;972.7;;;3.7;80.7
62980;BME280;49075;53.988;27.678;2023-12-20T08:17:03;972.8;;;3.8;80.9
62980;BME280;49075;53.988;27.678;2023-12-20T08:21:59;972.8;;;3.7;80.5
62980;BME280;49075;53.988;27.678;2023-12-20T08:26:47;972.8;;;3.8;80.8
62980;BME280;49075;53.988;27.678;2023-12-20T08:31:29;972.9;;;3.7;80.6
62980;BME280;49075;53.988;27.678;2023-12-20T08:37:19;972.9;;;3.7;81.1
62980;BME280;49075;53.988;27.678;2023-12-20T08:41:35;972.9;;;3.7;80.7
62980;BME280;49075;53.988;27.678;2023-12-20T08:46:47;972.9;;;3.8;80.8
62980;BME280;49075;53.988;27.678;2023-12-20T08:51:27;972.9;;;3.7;80.8
62980;BME280;49075;53.988;27.678;2023-12-20T08:56:37;972.9;;;3.7;80.9
62980;BME280;49075;53.988;27.678;2023-12-20T09:02:17;972.8;;;3.7;80.7
62980;BME280;49075;53.988;27.678;2023-12-20T09:06:29;972.7;;;3.8;81
62980;BME280;49075;53.988;27.678;2023-12-20T09:12:09;972.7;;;3.8;80.8
62980;BME280;49075;53.988;27.678;2023-12-20T09:16:39;972.8;;;3.8;80.9
62980;BME280;49075;53.988;27.678;2023-12-20T09:21:49;972.8;;;3.7;80.7
62980;BME280;49075;53.988;27.678;2023-12-20T09:27:17;972.7;;;3.7;81
62980;BME280;49075;53.988;27.678;2023-12-20T09:32:03;972.6;;;3.7;80.8
62980;BME280;49075;53.988;27.678;2023-12-20T09:36:45;972.7;;;3.7;81
62980;BME280;49075;53.988;27.678;2023-12-20T09:41:45;972.6;;;3.7;80.8
62980;BME280;49075;53.988;27.678;2023-12-20T09:46:27;972.6;;;3.6;81.3
62980;BME280;49075;53.988;27.678;2023-12-20T09:52:01;972.5;;;3.5;81.2
62980;BME280;49075;53.988;27.678;2023-12-20T09:57:05;972.5;;;3.7;81.1
62980;BME280;49075;53.988;27.678;2023-12-20T10:01:29;972.4;;;3.7;81
62980;BME280;49075;53.988;27.678;2023-12-20T10:06:39;972.3;;;3.8;80.9
62980;BME280;49075;53.988;27.678;2023-12-20T10:11:59;972.2;;;3.8;80.7
62980;BME280;49075;53.988;27.678;2023-12-20T10:17:17;972.2;;;3.8;80.6
62980;BME280;49075;53.988;27.678;2023-12-20T10:21:33;972.1;;;4;80.5
62980;BME280;49075;53.988;27.678;2023-12-20T10:26:35;972.1;;;4;80.1
62980;BME280;49075;53.988;27.678;2023-12-20T10:31:49;972;;;4.1;80.2
62980;BME280;49075;53.988;27.678;2023-12-20T10:36:27;971.9;;;4.1;79.7
62980;BME280;49075;53.988;27.678;2023-12-20T10:42:19;971.9;;;4;80.1
62980;BME280;49075;53.988;27.678;2023-12-20T10:47:05;971.9;;;3.9;80.1
62980;BME280;49075;53.988;27.678;2023-12-20T10:51:59;971.9;;;4.1;80.1
62980;BME280;49075;53.988;27.678;2023-12-20T10:56:39;972;;;4;79.6
62980;BME280;49075;53.988;27.678;2023-12-20T11:02:19;972;;;4.1;79.8
62980;BME280;49075;53.988;27.678;2023-12-20T11:07:18;972;;;4.1;79.6
62980;BME280;49075;53.988;27.678;2023-12-20T11:11:51;972.1;;;4;79.8
62980;BME280;49075;53.988;27.678;2023-12-20T11:16:36;972.1;;;4;79.7
62980;BME280;49075;53.988;27.678;2023-12-20T11:22:09;971.9;;;4;79.6
62980;BME280;49075;53.988;27.678;2023-12-20T11:26:35;971.9;;;4.1;79.2
62980;BME280;49075;53.988;27.678;2023-12-20T11:32:27;971.9;;;4.1;79.4
62980;BME280;49075;53.988;27.678;2023-12-20T11:37:03;971.9;;;4.1;79.1
62980;BME280;49075;53.988;27.678;2023-12-20T11:42:19;971.8;;;4;79.5
62980;BME280;49075;53.988;27.678;2023-12-20T11:46:34;971.9;;;4;78.9
62980;BME280;49075;53.988;27.678;2023-12-20T11:52:15;971.9;;;4.1;79.2
62980;BME280;49075;53.988;27.678;2023-12-20T11:56:59;971.8;;;4;78.9
62980;BME280;49075;53.988;27.678;2023-12-20T12:01:27;971.8;;;4.1;79
62980;BME280;49075;53.988;27.678;2023-12-20T12:06:43;971.8;;;4.1;78.6
62980;BME280;49075;53.988;27.678;2023-12-20T12:12:07;971.7;;;4;78.9
62980;BME280;49075;53.988;27.678;2023-12-20T12:16:53;971.6;;;4;78.9
62980;BME280;49075;53.988;27.678;2023-12-20T12:22:19;971.7;;;4.1;78.8
62980;BME280;49075;53.988;27.678;2023-12-20T12:26:27;971.6;;;4.1;78.8
62980;BME280;49075;53.988;27.678;2023-12-20T12:32:21;971.6;;;4.1;78.8
62980;BME280;49075;53.988;27.678;2023-12-20T12:37:22;971.6;;;4.1;78.7
62980;BME280;49075;53.988;27.678;2023-12-20T12:41:28;971.6;;;4.1;79
62980;BME280;49075;53.988;27.678;2023-12-20T12:46:43;971.5;;;4;79.1
62980;BME280;49075;53.988;27.678;2023-12-20T12:51:35;971.5;;;4;79.4
62980;BME280;49075;53.988;27.678;2023-12-20T12:56:27;971.4;;;4;79.4
62980;BME280;49075;53.988;27.678;2023-12-20T13:01:45;971.5;;;3.8;79.7
62980;BME280;49075;53.988;27.678;2023-12-20T13:06:27;971.5;;;3.8;79.9
62980;BME280;49075;53.988;27.678;2023-12-20T13:12:19;971.5;;;3.8;80
62980;BME280;49075;53.988;27.678;2023-12-20T13:17:07;971.5;;;3.7;80.4
62980;BME280;49075;53.988;27.678;2023-12-20T13:21:59;971.4;;;3.6;80.6
62980;BME280;49075;53.988;27.678;2023-12-20T13:27:01;971.3;;;3.5;81
62980;BME280;49075;53.988;27.678;2023-12-20T13:32:19;971.3;;;3.5;81
62980;BME280;49075;53.988;27.678;2023-12-20T13:36:57;971.3;;;3.6;81.1
62980;BME280;49075;53.988;27.678;2023-12-20T13:42:03;971.3;;;3.5;81.4
62980;BME280;49075;53.988;27.678;2023-12-20T13:46:35;971.3;;;3.5;81.3
62980;BME280;49075;53.988;27.678;2023-12-20T13:51:59;971.2;;;3.6;81.1
62980;BME280;49075;53.988;27.678;2023-12-20T13:57:09;971.2;;;3.5;81.1
62980;BME280;49075;53.988;27.678;2023-12-20T14:02:21;971.2;;;3.6;81
62980;BME280;49075;53.988;27.678;2023-12-20T14:06:53;971.2;;;3.6;80.8
62980;BME280;49075;53.988;27.678;2023-12-20T14:11:59;971;;;3.6;80.7
62980;BME280;49075;53.988;27.678;2023-12-20T14:17:19;971;;;3.6;80.7
62980;BME280;49075;53.988;27.678;2023-12-20T14:21:43;971;;;3.6;80.5
62980;BME280;49075;53.988;27.678;2023-12-20T14:26:59;971;;;3.7;80.4
62980;BME280;49075;53.988;27.678;2023-12-20T14:31:43;970.9;;;3.8;80.2
62980;BME280;49075;53.988;27.678;2023-12-20T14:36:53;970.9;;;3.8;80.1
62980;BME280;49075;53.988;27.678;2023-12-20T14:41:53;970.8;;;3.9;80
62980;BME280;49075;53.988;27.678;2023-12-20T14:46:53;970.8;;;3.9;79.9
62980;BME280;49075;53.988;27.678;2023-12-20T14:52:19;970.7;;;3.9;80
62980;BME280;49075;53.988;27.678;2023-12-20T14:56:43;970.7;;;3.8;79.8
62980;BME280;49075;53.988;27.678;2023-12-20T15:01:49;970.6;;;3.8;80.1
62980;BME280;49075;53.988;27.678;2023-12-20T15:07:21;970.6;;;3.7;80
62980;BME280;49075;53.988;27.678;2023-12-20T15:12:17;970.6;;;3.7;80.3
62980;BME280;49075;53.988;27.678;2023-12-20T15:16:57;970.5;;;3.7;80
62980;BME280;49075;53.988;27.678;2023-12-20T15:22:03;970.5;;;3.8;80
62980;BME280;49075;53.988;27.678;2023-12-20T15:26:45;970.5;;;3.8;79.8
62980;BME280;49075;53.988;27.678;2023-12-20T15:31:53;970.5;;;3.9;79.9
62980;BME280;49075;53.988;27.678;2023-12-20T15:36:27;970.4;;;3.9;80.2
62980;BME280;49075;53.988;27.678;2023-12-20T15:42:19;970.3;;;3.9;80.3
62980;BME280;49075;53.988;27.678;2023-12-20T15:47:05;970.3;;;4;79.9
62980;BME280;49075;53.988;27.678;2023-12-20T15:51:47;970.3;;;4;79.9
62980;BME280;49075;53.988;27.678;2023-12-20T15:57:15;970.3;;;4;79.7
62980;BME280;49075;53.988;27.678;2023-12-20T16:01:27;970.3;;;3.9;79.7
62980;BME280;49075;53.988;27.678;2023-12-20T16:07:15;970.3;;;3.8;79.5
62980;BME280;49075;53.988;27.678;2023-12-20T16:11:47;970.2;;;3.8;79.6
62980;BME280;49075;53.988;27.678;2023-12-20T16:16:55;970.1;;;3.7;79.2
62980;BME280;49075;53.988;27.678;2023-12-20T16:21:35;970.2;;;3.6;79.4
62980;BME280;49075;53.988;27.678;2023-12-20T16:26:35;970.2;;;3.5;79.2
62980;BME280;49075;53.988;27.678;2023-12-20T16:32:07;970.1;;;3.5;79.4
62980;BME280;49075;53.988;27.678;2023-12-20T16:36:52;970;;;3.3;79.3
62980;BME280;49075;53.988;27.678;2023-12-20T16:41:45;970.1;;;3.3;79.5
62980;BME280;49075;53.988;27.678;2023-12-20T16:46:43;970.1;;;3.3;79.4
62980;BME280;49075;53.988;27.678;2023-12-20T16:51:49;970.1;;;3.4;79.5
62980;BME280;49075;53.988;27.678;2023-12-20T16:57:15;970.1;;;3.4;79.4
62980;BME280;49075;53.988;27.678;2023-12-20T17:01:45;970.1;;;3.4;79.5
62980;BME280;49075;53.988;27.678;2023-12-20T17:06:43;970.1;;;3.4;79.5
62980;BME280;49075;53.988;27.678;2023-12-20T17:11:45;970.2;;;3.3;79.5
62980;BME280;49075;53.988;27.678;2023-12-20T17:17:05;970.1;;;3.3;79.4
62980;BME280;49075;53.988;27.678;2023-12-20T17:21:29;970;;;3.3;79.5
62980;BME280;49075;53.988;27.678;2023-12-20T17:27:07;969.9;;;3.3;79.6
62980;BME280;49075;53.988;27.678;2023-12-20T17:32:19;969.8;;;3.3;79.4
62980;BME280;49075;53.988;27.678;2023-12-20T17:37:07;969.6;;;3.2;79.4
62980;BME280;49075;53.988;27.678;2023-12-20T17:41:59;969.5;;;3;79.7
62980;BME280;49075;53.988;27.678;2023-12-20T17:47:19;969.6;;;2.9;79.8
62980;BME280;49075;53.988;27.678;2023-12-20T17:51:53;969.7;;;2.9;79.9
62980;BME280;49075;53.988;27.678;2023-12-20T17:56:35;969.6;;;3;79.9
62980;BME280;49075;53.988;27.678;2023-12-20T18:01:35;969.6;;;2.9;79.9
62980;BME280;49075;53.988;27.678;2023-12-20T18:07:03;969.5;;;2.8;79.8
62980;BME280;49075;53.988;27.678;2023-12-20T18:11:59;969.4;;;2.7;79.8
62980;BME280;49075;53.988;27.678;2023-12-20T18:17:09;969.2;;;2.7;79.8
62980;BME280;49075;53.988;27.678;2023-12-20T18:22:21;969;;;2.7;79.6
62980;BME280;49075;53.988;27.678;2023-12-20T18:27:10;969;;;2.7;79.3
62980;BME280;49075;53.988;27.678;2023-12-20T18:31:55;969;;;2.6;79.3
62980;BME280;49075;53.988;27.678;2023-12-20T18:37:19;968.9;;;2.5;79.2
62980;BME280;49075;53.988;27.678;2023-12-20T18:41:35;968.9;;;2.6;79.2
62980;BME280;49075;53.988;27.678;2023-12-20T18:46:43;968.9;;;2.6;78.7
62980;BME280;49075;53.988;27.678;2023-12-20T18:52:03;969;;;2.6;78.9
62980;BME280;49075;53.988;27.678;2023-12-20T18:56:27;969.1;;;2.5;78.5
62980;BME280;49075;53.988;27.678;2023-12-20T19:02:09;969.1;;;2.5;78.5
62980;BME280;49075;53.988;27.678;2023-12-20T19:06:41;969.1;;;2.5;78.1
62980;BME280;49075;53.988;27.678;2023-12-20T19:12:17;969;;;2.5;78.1
62980;BME280;49075;53.988;27.678;2023-12-20T19:17:07;969;;;2.3;77.5
62980;BME280;49075;53.988;27.678;2023-12-20T19:21:33;969;;;2.3;77.7
62980;BME280;49075;53.988;27.678;2023-12-20T19:27:21;969;;;2.2;77.4
62980;BME280;49075;53.988;27.678;2023-12-20T19:31:33;969.1;;;2.1;77.7
62980;BME280;49075;53.988;27.678;2023-12-20T19:36:35;969;;;2.1;77.2
62980;BME280;49075;53.988;27.678;2023-12-20T19:41:55;969.1;;;2.3;77.4
62980;BME280;49075;53.988;27.678;2023-12-20T19:46:39;969;;;2.2;76.9
62980;BME280;49075;53.988;27.678;2023-12-20T19:51:55;968.9;;;2.3;77.2
62980;BME280;49075;53.988;27.678;2023-12-20T19:56:59;968.9;;;2.4;77.2
62980;BME280;49075;53.988;27.678;2023-12-20T20:02:21;968.9;;;2.4;77.1
62980;BME280;49075;53.988;27.678;2023-12-20T20:07:09;969;;;2.3;77
62980;BME280;49075;53.988;27.678;2023-12-20T20:11:43;969;;;2.3;77.2
62980;BME280;49075;53.988;27.678;2023-12-20T20:17:19;968.9;;;2.1;77.2
62980;BME280;49075;53.988;27.678;2023-12-20T20:21:45;968.8;;;2;77.8
62980;BME280;49075;53.988;27.678;2023-12-20T20:26:59;968.8;;;1.9;77.7
62980;BME280;49075;53.988;27.678;2023-12-20T20:31:35;968.8;;;1.9;78
62980;BME280;49075;53.988;27.678;2023-12-20T20:36:27;968.8;;;1.9;78
62980;BME280;49075;53.988;27.678;2023-12-20T20:42:07;968.8;;;2;78.1
62980;BME280;49075;53.988;27.678;2023-12-20T20:47:07;968.7;;;1.9;77.8
62980;BME280;49075;53.988;27.678;2023-12-20T20:51:41;968.7;;;2;77.9
62980;BME280;49075;53.988;27.678;2023-12-20T20:57:19;968.7;;;1.9;78
62980;BME280;49075;53.988;27.678;2023-12-20T21:02:19;968.6;;;1.7;78.4
62980;BME280;49075;53.988;27.678;2023-12-20T21:07:19;968.6;;;1.7;78.2
62980;BME280;49075;53.988;27.678;2023-12-20T21:12:09;968.5;;;1.8;78.2
62980;BME280;49075;53.988;27.678;2023-12-20T21:17:21;968.5;;;1.7;78
62980;BME280;49075;53.988;27.678;2023-12-20T21:22:21;968.4;;;1.7;78.2
62980;BME280;49075;53.988;27.678;2023-12-20T21:26:35;968.3;;;1.6;78.1
62980;BME280;49075;53.988;27.678;2023-12-20T21:32:19;968.3;;;1.6;78.2
62980;BME280;49075;53.988;27.678;2023-12-20T21:37:07;968.3;;;1.6;77.9
62980;BME280;49075;53.988;27.678;2023-12-20T21:41:47;968.3;;;1.6;78
62980;BME280;49075;53.988;27.678;2023-12-20T21:47:19;968.2;;;1.6;77.6
62980;BME280;49075;53.988;27.678;2023-12-20T21:51:45;968.2;;;1.5;77.9
62980;BME280;49075;53.988;27.678;2023-12-20T21:57:17;968.1;;;1.4;77.7
62980;BME280;49075;53.988;27.678;2023-12-20T22:02:19;968;;;1.2;78
62980;BME280;49075;53.988;27.678;2023-12-20T22:06:35;968.1;;;1.2;77.8
62980;BME280;49075;53.988;27.678;2023-12-20T22:12:03;968.1;;;1.3;78.1
62980;BME280;49075;53.988;27.678;2023-12-20T22:16:53;968.1;;;1.2;78
62980;BME280;49075;53.988;27.678;2023-12-20T22:22:03;968;;;1.2;78.3
62980;BME280;49075;53.988;27.678;2023-12-20T22:27:07;967.9;;;1.1;78
62980;BME280;49075;53.988;27.678;2023-12-20T22:31:49;967.9;;;1.2;77.9
62980;BME280;49075;53.988;27.678;2023-12-20T22:37:19;967.9;;;1.2;77.9
62980;BME280;49075;53.988;27.678;2023-12-20T22:42:17;967.8;;;1.2;78.5
62980;BME280;49075;53.988;27.678;2023-12-20T22:47:19;967.8;;;1.1;78.8
62980;BME280;49075;53.988;27.678;2023-12-20T22:51:27;967.8;;;1.2;79
62980;BME280;49075;53.988;27.678;2023-12-20T22:56:41;967.8;;;1.1;79.6
62980;BME280;49075;53.988;27.678;2023-12-20T23:02:19;967.7;;;0.9;80.5
62980;BME280;49075;53.988;27.678;2023-12-20T23:06:33;967.7;;;0.9;80.4
62980;BME280;49075;53.988;27.678;2023-12-20T23:12:21;967.7;;;0.9;80.7
62980;BME280;49075;53.988;27.678;2023-12-20T23:17:09;967.7;;;0.8;81
62980;BME280;49075;53.988;27.678;2023-12-20T23:21:41;967.7;;;1.1;80.3
62980;BME280;49075;53.988;27.678;2023-12-20T23:27:21;967.7;;;0.9;80.8
62980;BME280;49075;53.988;27.678;2023-12-20T23:32:19;967.6;;;1;80.4
62980;BME280;49075;53.988;27.678;2023-12-20T23:37:17;967.6;;;1.1;80
62980;BME280;49075;53.988;27.678;2023-12-20T23:41:27;967.5;;;1.2;79.7
62980;BME280;49075;53.988;27.678;2023-12-20T23:46:59;967.5;;;1.1;79.6
62980;BME280;49075;53.988;27.678;2023-12-20T23:52:17;967.4;;;1.2;79.3
62980;BME280;49075;53.988;27.678;2023-12-20T23:57:05;967.4;;;1.2;79.3
